KFPR/FPR METAR and TAF weather

Enter ICAO airport designator
Station Type Date Time Source
KFPR METAR 2019/04/22 19:53 UTC NOAA

KFPR 221953Z 04007KT 010V080 10SM CLR 26/13 A3011 RMK AO2 SLP197 T02560133


Station Type Date Time Source
KFPR Decoded METAR 2019/04/22 19:53 UTC NOAA

FORT PIERCE ST LUCIE, FL, United States (KFPR) 27-30N 080-23W 13M
Apr 22, 2019 - 03:53 PM EDT / 2019.04.22 1953 UTC
Wind: from the NE (040 degrees) at 8 MPH (7 KT) (direction variable):0
Visibility: 10 mile(s):0
Sky conditions: clear
Temperature: 78.1 F (25.6 C)
Dew Point: 55.9 F (13.3 C)
Relative Humidity: 46%
Pressure (altimeter): 30.11 in. Hg (1019 hPa)
ob: KFPR 221953Z 04007KT 010V080 10SM CLR 26/13 A3011 RMK AO2 SLP197 T02560133
cycle: 20

Station Type Date Time Source
KFPR TAF 2019/04/22 18:22 UTC NOAA

TAF KFPR 221720Z 2218/2318 07008KT P6SM FEW040
FM230300 VRB03KT P6SM SKC
FM231500 07009KT P6SM SKC

Example: see airport list